Time;durP1;ratioP1;P1;durP2;ratioP2;P2;SDS_P1;SDS_P2;PMS_P1;PMS_P2;Temp;Humidity;BMP_temperature;BMP_pressure;BME280_temperature;BME280_humidity;BME280_pressure;Samples;Min_cycle;Max_cycle;Signal;HPM_P1;HPM_P2
2021/03/29 00:00:13;;;;;;;1999.90;999.90;;;20.40;61.70;;;;;;5053676;28;20245;-43
2021/03/29 00:02:40;;;;;;;1999.90;999.90;;;20.50;62.40;;;;;;5053744;28;20177;-46
2021/03/29 00:05:07;;;;;;;1999.90;999.90;;;20.40;62.70;;;;;;5053647;28;20195;-52
2021/03/29 00:07:36;;;;;;;1999.90;999.90;;;20.40;62.70;;;;;;5053547;28;20223;-45
2021/03/29 00:10:10;;;;;;;1999.90;999.90;;;20.40;63.30;;;;;;5053591;28;20503;-48
2021/03/29 00:12:39;;;;;;;1999.90;999.90;;;20.40;63.30;;;;;;5053560;28;20534;-50
2021/03/29 00:15:09;;;;;;;1999.90;999.90;;;20.30;63.80;;;;;;5053345;28;20193;-51
2021/03/29 00:17:38;;;;;;;1999.90;999.90;;;20.30;64.50;;;;;;5052094;28;20169;-50
2021/03/29 00:20:15;;;;;;;1999.90;999.90;;;20.20;64.20;;;;;;5053407;28;20219;-54
2021/03/29 00:22:42;;;;;;;1999.90;999.90;;;20.10;64.30;;;;;;5053393;28;20150;-50
2021/03/29 00:25:17;;;;;;;1999.90;999.90;;;20.10;64.70;;;;;;5053389;28;20168;-51
2021/03/29 00:27:45;;;;;;;1999.90;999.90;;;20.10;64.60;;;;;;5053314;28;20220;-50
2021/03/29 00:30:19;;;;;;;1999.90;999.90;;;20.10;65.30;;;;;;5053286;28;20184;-45
2021/03/29 00:32:47;;;;;;;1999.90;999.90;;;20.10;65.60;;;;;;5053188;28;20207;-48
2021/03/29 00:35:16;;;;;;;1999.90;999.90;;;20.10;65.80;;;;;;5052880;28;20678;-47
2021/03/29 00:37:47;;;;;;;1999.90;999.90;;;20.10;66.00;;;;;;5053024;28;20713;-50
2021/03/29 00:40:15;;;;;;;1999.90;999.90;;;20.00;66.40;;;;;;5053414;28;20523;-45
2021/03/29 00:42:43;;;;;;;1999.90;999.90;;;20.00;66.50;;;;;;5053051;28;20215;-45
2021/03/29 00:45:17;;;;;;;1999.90;999.90;;;20.00;66.60;;;;;;5053039;28;20165;-49
2021/03/29 00:47:44;;;;;;;1999.90;999.90;;;20.00;67.00;;;;;;5052940;28;20648;-49
2021/03/29 00:50:17;;;;;;;1999.90;999.90;;;20.00;66.80;;;;;;5052819;28;20247;-49
2021/03/29 00:52:44;;;;;;;1999.90;999.90;;;20.00;67.40;;;;;;5053027;28;20153;-50
2021/03/29 00:55:12;;;;;;;1999.90;999.90;;;20.10;67.50;;;;;;5052996;28;20165;-50
2021/03/29 00:57:40;;;;;;;1999.90;999.90;;;20.10;67.50;;;;;;5052971;28;20169;-46
2021/03/29 01:00:30;;;;;;;1999.90;999.90;;;20.10;67.50;;;;;;5052824;28;20161;-48
2021/03/29 01:02:58;;;;;;;1999.90;999.90;;;20.10;67.20;;;;;;5052927;28;20177;-52
2021/03/29 01:05:25;;;;;;;1999.90;999.90;;;20.10;67.20;;;;;;5052796;28;20169;-52
2021/03/29 01:07:53;;;;;;;1999.90;999.90;;;20.10;67.50;;;;;;5052724;28;20200;-49
2021/03/29 01:10:21;;;;;;;1999.90;999.90;;;20.00;67.80;;;;;;5052642;28;20178;-48
2021/03/29 01:12:48;;;;;;;1999.90;999.90;;;19.90;68.00;;;;;;5052697;28;20169;-50
2021/03/29 01:15:21;;;;;;;1999.90;999.90;;;19.90;68.10;;;;;;5052657;28;20165;-49
2021/03/29 01:17:50;;;;;;;1999.90;999.90;;;19.90;68.50;;;;;;5052649;28;20215;-45
2021/03/29 01:20:52;;;;;;;1999.90;999.90;;;19.80;68.70;;;;;;5052695;28;20572;-50
2021/03/29 01:23:21;;;;;;;1999.90;999.90;;;19.60;69.10;;;;;;5052757;28;20157;-50
2021/03/29 01:25:55;;;;;;;1999.90;999.90;;;19.60;69.40;;;;;;5052930;28;20528;-48
2021/03/29 01:28:23;;;;;;;1999.90;999.90;;;19.60;69.00;;;;;;5055391;28;20600;-52
2021/03/29 01:30:52;;;;;;;1999.90;999.90;;;19.60;68.90;;;;;;5056579;28;20227;-38
2021/03/29 01:33:21;;;;;;;1999.90;999.90;;;19.60;69.10;;;;;;5056661;28;20235;-51
2021/03/29 01:35:56;;;;;;;1999.90;999.90;;;19.60;69.30;;;;;;5056394;28;20266;-45
2021/03/29 01:38:26;;;;;;;1999.90;999.90;;;19.60;69.10;;;;;;5056477;28;20526;-50
2021/03/29 01:40:54;;;;;;;1999.90;999.90;;;19.50;69.40;;;;;;5056420;28;20259;-49
2021/03/29 01:43:22;;;;;;;1999.90;999.90;;;19.40;70.00;;;;;;5056438;28;20215;-52
2021/03/29 01:45:49;;;;;;;1999.90;999.90;;;19.40;70.20;;;;;;5056393;28;20256;-49
2021/03/29 01:48:16;;;;;;;1999.90;999.90;;;19.30;70.10;;;;;;5056264;28;20205;-46
2021/03/29 01:50:45;;;;;;;1999.90;999.90;;;19.20;70.40;;;;;;5056394;28;20616;-51
2021/03/29 01:53:14;;;;;;;1999.90;999.90;;;19.30;71.10;;;;;;5056249;28;20635;-49
2021/03/29 01:55:41;;;;;;;1999.90;999.90;;;19.20;71.70;;;;;;5056198;28;20189;-50
2021/03/29 01:58:09;;;;;;;1999.90;999.90;;;19.10;71.80;;;;;;5056193;28;20173;-52
2021/03/29 02:00:58;;;;;;;1999.90;999.90;;;19.00;71.90;;;;;;5056382;28;20199;-49
2021/03/29 02:03:26;;;;;;;1999.90;999.90;;;19.00;72.40;;;;;;5056085;28;20176;-50
2021/03/29 02:05:55;;;;;;;1999.90;999.90;;;19.00;72.80;;;;;;5056062;28;20667;-51
2021/03/29 02:08:24;;;;;;;1999.90;999.90;;;19.00;72.80;;;;;;5055914;28;20204;-43
2021/03/29 02:10:52;;;;;;;1999.90;999.90;;;18.90;73.10;;;;;;5055965;28;20177;-43
2021/03/29 02:13:33;;;;;;;1999.90;999.90;;;18.90;73.70;;;;;;5055993;28;20352;-43
2021/03/29 02:16:06;;;;;;;1999.90;999.90;;;18.80;74.00;;;;;;5055868;28;20157;-49
2021/03/29 02:18:41;;;;;;;1999.90;999.90;;;18.80;74.00;;;;;;5055753;28;20188;-43
2021/03/29 02:21:11;;;;;;;1999.90;999.90;;;18.80;74.20;;;;;;5056009;28;20192;-48
2021/03/29 02:23:40;;;;;;;1999.90;999.90;;;18.80;74.20;;;;;;5056267;28;20186;-49
2021/03/29 02:26:08;;;;;;;1999.90;999.90;;;18.80;73.90;;;;;;5056007;28;20184;-44
2021/03/29 02:28:35;;;;;;;1999.90;999.90;;;18.70;74.30;;;;;;5055742;28;20656;-47
2021/03/29 02:31:04;;;;;;;1999.90;999.90;;;18.60;74.70;;;;;;5055526;28;20169;-51
2021/03/29 02:33:33;;;;;;;1999.90;999.90;;;18.60;75.70;;;;;;5055436;28;20584;-48
2021/03/29 02:36:00;;;;;;;1999.90;999.90;;;18.60;75.10;;;;;;5055287;28;20589;-46
2021/03/29 02:38:27;;;;;;;1999.90;999.90;;;18.60;75.70;;;;;;5054501;28;20239;-53
2021/03/29 02:40:55;;;;;;;1999.90;999.90;;;18.60;76.00;;;;;;5055242;28;20166;-49
2021/03/29 02:43:24;;;;;;;1999.90;999.90;;;18.60;76.10;;;;;;5055867;28;20173;-49
2021/03/29 02:45:54;;;;;;;1999.90;999.90;;;18.60;76.50;;;;;;5055151;28;20161;-46
2021/03/29 02:48:26;;;;;;;1999.90;999.90;;;18.60;75.70;;;;;;5055111;28;20203;-49
2021/03/29 02:50:56;;;;;;;1999.90;999.90;;;18.60;76.30;;;;;;5055045;28;20692;-49
2021/03/29 02:53:30;;;;;;;1999.90;999.90;;;18.50;77.10;;;;;;5055022;28;20173;-51
2021/03/29 02:56:01;;;;;;;1999.90;999.90;;;18.50;76.90;;;;;;5054955;28;20172;-45
2021/03/29 02:58:29;;;;;;;1999.90;999.90;;;18.50;77.10;;;;;;5054994;28;20322;-50
2021/03/29 03:00:56;;;;;;;1999.90;999.90;;;18.50;76.50;;;;;;5054914;28;20189;-49
2021/03/29 03:03:25;;;;;;;1999.90;999.90;;;18.50;76.90;;;;;;5054848;28;20650;-48
2021/03/29 03:05:54;;;;;;;1999.90;999.90;;;18.50;76.80;;;;;;5054864;28;20204;-48
2021/03/29 03:08:21;;;;;;;1999.90;999.90;;;18.50;76.80;;;;;;5054587;28;20204;-53
2021/03/29 03:10:48;;;;;;;1999.90;999.90;;;18.50;77.10;;;;;;5054668;28;20207;-45
2021/03/29 03:13:16;;;;;;;1999.90;999.90;;;18.50;76.70;;;;;;5054563;28;20690;-40
2021/03/29 03:15:44;;;;;;;1999.90;999.90;;;18.50;76.90;;;;;;5054590;28;20166;-35
2021/03/29 03:18:11;;;;;;;1999.90;999.90;;;18.40;77.40;;;;;;5054671;28;20174;-43
2021/03/29 03:20:40;;;;;;;1999.90;999.90;;;18.40;77.80;;;;;;5054616;28;20193;-43
2021/03/29 03:23:15;;;;;;;1999.90;999.90;;;18.40;77.50;;;;;;5054479;28;20271;-51
2021/03/29 03:25:47;;;;;;;1999.90;999.90;;;18.40;77.60;;;;;;5054427;28;20157;-44
2021/03/29 03:28:19;;;;;;;1999.90;999.90;;;18.40;77.80;;;;;;5054438;28;20556;-47
2021/03/29 03:30:51;;;;;;;1999.90;999.90;;;18.40;78.30;;;;;;5054379;28;20165;-45
2021/03/29 03:33:21;;;;;;;1999.90;999.90;;;18.40;78.00;;;;;;5054280;28;20157;-52
2021/03/29 03:35:50;;;;;;;1999.90;999.90;;;18.40;78.30;;;;;;5054084;28;20568;-50
2021/03/29 03:38:18;;;;;;;1999.90;999.90;;;18.30;78.40;;;;;;5054216;28;20169;-50
2021/03/29 03:40:48;;;;;;;1999.90;999.90;;;18.30;78.90;;;;;;5054121;28;20177;-47
2021/03/29 03:43:18;;;;;;;1999.90;999.90;;;18.30;79.00;;;;;;5054093;28;20184;-39
2021/03/29 03:45:52;;;;;;;1999.90;999.90;;;18.20;78.90;;;;;;5054141;28;20181;-43
2021/03/29 03:48:19;;;;;;;1999.90;999.90;;;18.20;79.50;;;;;;5054196;28;20557;-49
2021/03/29 03:50:48;;;;;;;1999.90;999.90;;;18.20;79.40;;;;;;5053537;28;20258;-35
2021/03/29 03:53:16;;;;;;;1999.90;999.90;;;18.30;79.20;;;;;;5054012;28;20177;-47
2021/03/29 03:55:44;;;;;;;1999.90;999.90;;;18.30;79.00;;;;;;5053969;28;20164;-45
2021/03/29 03:58:14;;;;;;;1999.90;999.90;;;18.30;79.30;;;;;;5053774;28;20168;-48
2021/03/29 04:00:41;;;;;;;1999.90;999.90;;;18.40;78.90;;;;;;5054073;28;20161;-47
2021/03/29 04:03:09;;;;;;;1999.90;999.90;;;18.40;79.90;;;;;;5053673;28;20261;-49
2021/03/29 04:05:36;;;;;;;1999.90;999.90;;;18.40;78.50;;;;;;5053660;28;20181;-45
2021/03/29 04:08:02;;;;;;;1999.90;999.90;;;18.40;78.20;;;;;;5053686;28;20717;-47
2021/03/29 04:13:30;;;;;;;1999.90;999.90;;;18.50;77.90;;;;;;5030539;28;20188;-48
2021/03/29 04:16:00;;;;;;;1999.90;999.90;;;18.70;76.60;;;;;;5053596;28;20173;-48
2021/03/29 04:18:27;;;;;;;1999.90;999.90;;;18.70;76.60;;;;;;5053473;28;20161;-46
2021/03/29 04:20:55;;;;;;;1999.90;999.90;;;18.70;77.00;;;;;;5053433;28;20522;-44
2021/03/29 04:23:23;;;;;;;1999.90;999.90;;;18.50;77.20;;;;;;5053275;28;20667;-46
2021/03/29 04:25:55;;;;;;;1999.90;999.90;;;18.30;77.10;;;;;;5053391;28;20173;-51
2021/03/29 04:28:22;;;;;;;1999.90;999.90;;;18.20;77.50;;;;;;5051894;28;20201;-48
2021/03/29 04:30:50;;;;;;;1999.90;999.90;;;18.20;77.50;;;;;;5053167;28;20508;-39
2021/03/29 04:33:19;;;;;;;1999.90;999.90;;;18.20;77.10;;;;;;5053486;28;20177;-49
2021/03/29 04:35:46;;;;;;;1999.90;999.90;;;18.20;76.70;;;;;;5053106;28;20248;-45
2021/03/29 04:38:13;;;;;;;1999.90;999.90;;;18.30;76.90;;;;;;5053181;28;20173;-50
2021/03/29 04:40:45;;;;;;;1999.90;999.90;;;18.20;77.20;;;;;;5053103;28;20558;-49
2021/03/29 04:43:12;;;;;;;1999.90;999.90;;;18.40;77.70;;;;;;5053028;28;20169;-38
2021/03/29 04:45:40;;;;;;;1999.90;999.90;;;18.40;77.60;;;;;;5053132;28;20647;-51
2021/03/29 04:48:07;;;;;;;1999.90;999.90;;;18.40;78.00;;;;;;5051669;28;20208;-47
2021/03/29 04:50:34;;;;;;;1999.90;999.90;;;18.50;78.30;;;;;;5053351;28;20207;-46
2021/03/29 04:53:01;;;;;;;1999.90;999.90;;;18.40;78.30;;;;;;5052902;28;20230;-48
2021/03/29 04:55:28;;;;;;;1999.90;999.90;;;18.40;78.50;;;;;;5052898;28;20248;-46
2021/03/29 04:57:54;;;;;;;1999.90;999.90;;;18.40;79.20;;;;;;5052939;28;20169;-51
2021/03/29 05:00:22;;;;;;;1999.90;999.90;;;18.40;79.10;;;;;;5052862;28;20196;-37
2021/03/29 05:02:48;;;;;;;1999.90;999.90;;;18.40;79.80;;;;;;5052275;28;20169;-50
2021/03/29 05:05:16;;;;;;;1999.90;999.90;;;18.40;79.30;;;;;;5052695;28;20561;-40
2021/03/29 05:07:45;;;;;;;1999.90;999.90;;;18.50;78.70;;;;;;5052579;28;20201;-45
2021/03/29 05:10:13;;;;;;;1999.90;999.90;;;18.60;78.40;;;;;;5052935;28;20264;-50
2021/03/29 05:12:40;;;;;;;1999.90;999.90;;;18.50;78.70;;;;;;5052603;28;20620;-48
2021/03/29 05:15:09;;;;;;;1999.90;999.90;;;18.50;78.40;;;;;;5052579;28;20507;-47
2021/03/29 05:17:35;;;;;;;1999.90;999.90;;;18.40;78.60;;;;;;5052577;28;20652;-44
2021/03/29 05:20:04;;;;;;;1999.90;999.90;;;18.30;79.20;;;;;;5052596;28;20172;-41
2021/03/29 05:22:31;;;;;;;1999.90;999.90;;;18.30;79.50;;;;;;5052555;28;20679;-46
2021/03/29 05:24:58;;;;;;;1999.90;999.90;;;18.30;79.30;;;;;;5052362;28;20258;-48
2021/03/29 05:27:25;;;;;;;1999.90;999.90;;;18.20;79.30;;;;;;5052483;28;20258;-45
2021/03/29 05:29:52;;;;;;;1999.90;999.90;;;18.20;80.30;;;;;;5052561;28;20620;-46
2021/03/29 05:32:22;;;;;;;1999.90;999.90;;;18.30;79.80;;;;;;5052233;28;20201;-47
2021/03/29 05:34:51;;;;;;;1999.90;999.90;;;18.30;79.60;;;;;;5052197;28;20243;-46
2021/03/29 05:37:19;;;;;;;1999.90;999.90;;;18.30;80.00;;;;;;5052422;28;20177;-48
2021/03/29 05:39:48;;;;;;;1999.90;999.90;;;18.30;79.80;;;;;;5052101;28;20169;-49
2021/03/29 05:42:15;;;;;;;1999.90;999.90;;;18.30;80.50;;;;;;5051747;28;20192;-46
2021/03/29 05:44:42;;;;;;;1999.90;999.90;;;18.20;81.30;;;;;;5051629;28;20183;-44
2021/03/29 05:47:09;;;;;;;1999.90;999.90;;;18.10;81.50;;;;;;5052055;28;20208;-41
2021/03/29 05:49:36;;;;;;;1999.90;999.90;;;18.10;81.50;;;;;;5052233;28;20247;-42
2021/03/29 05:52:04;;;;;;;1999.90;999.90;;;18.10;81.80;;;;;;5052106;28;20172;-37
2021/03/29 05:54:31;;;;;;;1999.90;999.90;;;18.00;81.50;;;;;;5052282;28;20533;-44
2021/03/29 05:56:59;;;;;;;1999.90;999.90;;;18.10;82.10;;;;;;5051351;28;20192;-44
2021/03/29 05:59:27;;;;;;;1999.90;999.90;;;18.10;81.60;;;;;;5050344;28;20200;-45
2021/03/29 06:01:56;;;;;;;1999.90;999.90;;;18.10;80.70;;;;;;5051599;28;20235;-40
2021/03/29 06:04:46;;;;;;;1999.90;999.90;;;18.30;81.00;;;;;;5051278;28;20179;-41
2021/03/29 06:07:21;;;;;;;1999.90;999.90;;;18.50;79.40;;;;;;5051308;28;20204;-41
2021/03/29 06:09:50;;;;;;;1999.90;999.90;;;18.70;78.90;;;;;;5032073;28;20173;-46
2021/03/29 06:12:18;;;;;;;1999.90;999.90;;;18.70;78.80;;;;;;5044150;28;20222;-45
2021/03/29 06:14:47;;;;;;;1999.90;999.90;;;18.90;78.40;;;;;;5054524;28;20247;-47
2021/03/29 06:17:20;;;;;;;1999.90;999.90;;;19.10;77.60;;;;;;5054662;28;20184;-47
2021/03/29 06:20:00;;;;;;;1999.90;999.90;;;19.30;76.70;;;;;;5054820;28;20617;-47
2021/03/29 06:22:37;;;;;;;1999.90;999.90;;;19.60;76.10;;;;;;5054961;28;20180;-50
2021/03/29 06:25:21;;;;;;;1999.90;999.90;;;19.80;76.50;;;;;;5053688;28;20215;-49
2021/03/29 06:27:55;;;;;;;1999.90;999.90;;;19.90;75.10;;;;;;5053747;28;20212;-57
2021/03/29 06:30:24;;;;;;;1999.90;999.90;;;20.10;74.60;;;;;;5053633;28;20180;-51
2021/03/29 06:33:07;;;;;;;1999.90;999.90;;;20.30;73.40;;;;;;5054530;28;20177;-43
2021/03/29 06:35:43;;;;;;;1999.90;999.90;;;20.50;73.30;;;;;;5053751;28;20270;-51
2021/03/29 06:38:16;;;;;;;1999.90;999.90;;;20.60;71.80;;;;;;5054196;28;20260;-50
2021/03/29 06:40:59;;;;;;;1999.90;999.90;;;20.70;71.30;;;;;;5054302;28;20219;-49
2021/03/29 06:43:41;;;;;;;1999.90;999.90;;;20.80;70.20;;;;;;5053286;28;20638;-48
2021/03/29 06:46:20;;;;;;;1999.90;999.90;;;20.90;70.30;;;;;;5053730;28;20219;-52
2021/03/29 06:48:47;;;;;;;1999.90;999.90;;;21.10;69.60;;;;;;5053154;28;20672;-51
2021/03/29 06:51:32;;;;;;;1999.90;999.90;;;21.10;69.30;;;;;;5053555;28;20193;-57
2021/03/29 06:54:04;;;;;;;1999.90;999.90;;;21.30;68.70;;;;;;5052142;28;20248;-44
2021/03/29 06:56:43;;;;;;;1999.90;999.90;;;21.50;67.40;;;;;;5052332;28;20166;-40
2021/03/29 06:59:20;;;;;;;1999.90;999.90;;;21.60;66.20;;;;;;5053309;28;20180;-60
2021/03/29 07:01:50;;;;;;;1999.90;999.90;;;21.80;65.30;;;;;;5054176;28;20219;-42
2021/03/29 07:04:26;;;;;;;1999.90;999.90;;;21.90;64.90;;;;;;5053319;28;20165;-54
2021/03/29 07:06:53;;;;;;;1999.90;999.90;;;22.20;64.30;;;;;;5053378;28;20196;-48
2021/03/29 07:09:22;;;;;;;1999.90;999.90;;;22.40;64.00;;;;;;5053591;28;20173;-50
2021/03/29 07:11:50;;;;;;;1999.90;999.90;;;22.60;62.20;;;;;;5053725;28;20671;-52
2021/03/29 07:14:22;;;;;;;1999.90;999.90;;;22.80;59.20;;;;;;5053405;28;20541;-39
2021/03/29 07:16:49;;;;;;;1999.90;999.90;;;23.00;57.60;;;;;;5033261;28;20173;-47
2021/03/29 07:19:16;;;;;;;1999.90;999.90;;;23.20;57.40;;;;;;5047603;28;20234;-39
2021/03/29 07:21:43;;;;;;;1999.90;999.90;;;23.30;56.90;;;;;;5053498;28;20235;-42
2021/03/29 07:24:11;;;;;;;1999.90;999.90;;;23.50;56.90;;;;;;5052609;28;20570;-39
2021/03/29 07:26:44;;;;;;;1999.90;999.90;;;23.60;56.70;;;;;;5052784;28;20182;-43
2021/03/29 07:29:37;;;;;;;1999.90;999.90;;;23.60;56.70;;;;;;5051693;28;20173;-44
2021/03/29 07:32:05;;;;;;;1999.90;999.90;;;23.80;56.70;;;;;;5051014;28;20256;-39
2021/03/29 07:34:42;;;;;;;1999.90;999.90;;;24.10;56.20;;;;;;5052483;28;20251;-52
2021/03/29 07:37:33;;;;;;;1999.90;999.90;;;24.50;54.80;;;;;;5053067;28;20192;-47
2021/03/29 07:40:03;;;;;;;1999.90;999.90;;;24.80;54.00;;;;;;5052302;28;20639;-47
2021/03/29 07:42:29;;;;;;;1999.90;999.90;;;25.10;53.10;;;;;;5053121;28;20181;-50
2021/03/29 07:44:59;;;;;;;1999.90;999.90;;;25.30;52.20;;;;;;5052505;28;20563;-46
2021/03/29 07:47:44;;;;;;;1999.90;999.90;;;25.40;52.30;;;;;;5052533;28;20205;-51
2021/03/29 07:50:31;;;;;;;1999.90;999.90;;;25.80;51.70;;;;;;5053241;28;20256;-50
2021/03/29 07:53:01;;;;;;;1999.90;999.90;;;26.30;50.80;;;;;;5044516;28;20216;-51
2021/03/29 07:55:31;;;;;;;1999.90;999.90;;;27.00;49.20;;;;;;5052986;28;20173;-53
2021/03/29 07:58:00;;;;;;;1999.90;999.90;;;27.50;47.30;;;;;;5052894;28;20167;-56
2021/03/29 08:00:40;;;;;;;1999.90;999.90;;;28.00;46.50;;;;;;5050708;28;20169;-42
2021/03/29 08:03:13;;;;;;;1999.90;999.90;;;28.50;44.60;;;;;;5031597;28;20158;-42
2021/03/29 08:05:44;;;;;;;1999.90;999.90;;;28.90;43.90;;;;;;5032558;28;20292;-42
2021/03/29 08:08:33;;;;;;;1999.90;999.90;;;29.20;43.20;;;;;;5048104;28;20204;-49
2021/03/29 08:11:10;;;;;;;1999.90;999.90;;;29.60;42.00;;;;;;5053116;28;20172;-46
2021/03/29 08:13:55;;;;;;;1999.90;999.90;;;30.00;41.00;;;;;;5051852;28;20278;-48
2021/03/29 08:16:22;;;;;;;1999.90;999.90;;;30.10;39.90;;;;;;5052437;28;20172;-44
2021/03/29 08:19:17;;;;;;;1999.90;999.90;;;30.60;39.00;;;;;;5052368;28;20196;-46
2021/03/29 08:21:55;;;;;;;1999.90;999.90;;;31.30;37.50;;;;;;5052033;28;20157;-43
2021/03/29 08:24:25;;;;;;;1999.90;999.90;;;31.50;36.20;;;;;;5052950;28;20214;-46
2021/03/29 08:26:54;;;;;;;1999.90;999.90;;;31.70;36.10;;;;;;5051846;28;20187;-46
2021/03/29 08:29:28;;;;;;;1999.90;999.90;;;31.80;35.40;;;;;;5052392;28;20177;-42
2021/03/29 08:32:04;;;;;;;1999.90;999.90;;;31.90;34.60;;;;;;5052260;28;20193;-44
2021/03/29 08:34:48;;;;;;;1999.90;999.90;;;32.30;34.40;;;;;;5050134;28;20228;-44
2021/03/29 08:37:18;;;;;;;1999.90;999.90;;;32.40;34.30;;;;;;5051956;28;20595;-44
2021/03/29 08:39:47;;;;;;;1999.90;999.90;;;32.70;34.20;;;;;;5050300;28;20173;-44
2021/03/29 08:42:17;;;;;;;1999.90;999.90;;;32.90;32.90;;;;;;5051112;28;20590;-46
2021/03/29 08:44:46;;;;;;;1999.90;999.90;;;32.70;32.80;;;;;;5051940;28;20170;-41
2021/03/29 08:47:19;;;;;;;1999.90;999.90;;;32.80;32.60;;;;;;5051619;28;20307;-41
2021/03/29 08:49:51;;;;;;;1999.90;999.90;;;33.00;31.80;;;;;;5051522;28;20207;-44
2021/03/29 08:52:18;;;;;;;1999.90;999.90;;;32.80;30.90;;;;;;5052014;28;20227;-43
2021/03/29 08:54:54;;;;;;;1999.90;999.90;;;33.00;32.20;;;;;;5050891;28;20173;-45
2021/03/29 08:57:26;;;;;;;1999.90;999.90;;;33.50;31.10;;;;;;5041372;28;20165;-42
2021/03/29 08:59:59;;;;;;;1999.90;999.90;;;33.80;30.40;;;;;;5051520;28;20173;-42
2021/03/29 09:02:27;;;;;;;1999.90;999.90;;;34.30;29.40;;;;;;5049972;28;20695;-41
2021/03/29 09:04:59;;;;;;;1999.90;999.90;;;34.00;29.40;;;;;;5051669;28;20165;-42
2021/03/29 09:07:45;;;;;;;1999.90;999.90;;;34.30;29.20;;;;;;5032315;28;20197;-43
2021/03/29 09:10:33;;;;;;;1999.90;999.90;;;34.30;29.50;;;;;;5031654;28;20299;-45
2021/03/29 09:13:03;;;;;;;1999.90;999.90;;;34.20;29.20;;;;;;5051922;28;20173;-51
2021/03/29 09:15:37;;;;;;;1999.90;999.90;;;34.40;28.50;;;;;;5051002;28;20171;-53
2021/03/29 09:18:05;;;;;;;1999.90;999.90;;;34.00;28.40;;;;;;5051445;28;20622;-45
2021/03/29 09:20:38;;;;;;;1999.90;999.90;;;33.90;28.60;;;;;;5051484;28;20252;-42
2021/03/29 09:23:07;;;;;;;1999.90;999.90;;;33.80;28.50;;;;;;5050521;28;20169;-44
2021/03/29 09:25:37;;;;;;;1999.90;999.90;;;33.90;28.60;;;;;;5051608;28;20356;-52
2021/03/29 09:28:32;;;;;;;1999.90;999.90;;;33.70;28.70;;;;;;5052065;28;20232;-49
2021/03/29 09:31:04;;;;;;;1999.90;999.90;;;33.40;28.80;;;;;;5050915;28;20256;-49
2021/03/29 09:33:32;;;;;;;1999.90;999.90;;;33.50;29.20;;;;;;5051719;28;20615;-45
2021/03/29 09:36:08;;;;;;;1999.90;999.90;;;33.70;29.00;;;;;;5051689;28;20295;-45
2021/03/29 09:38:43;;;;;;;1999.90;999.90;;;33.80;29.40;;;;;;5051297;28;20149;-47
2021/03/29 09:41:25;;;;;;;1999.90;999.90;;;33.70;29.00;;;;;;5051911;28;20203;-43
2021/03/29 09:43:55;;;;;;;1999.90;999.90;;;34.20;28.40;;;;;;5050965;28;20161;-46
2021/03/29 09:46:33;;;;;;;1999.90;999.90;;;34.30;28.50;;;;;;5031523;28;20655;-43
2021/03/29 09:49:16;;;;;;;1999.90;999.90;;;34.20;28.30;;;;;;5033962;28;20656;-45
2021/03/29 09:51:46;;;;;;;1999.90;999.90;;;34.40;27.70;;;;;;5043342;28;20523;-40
2021/03/29 09:54:32;;;;;;;1999.90;999.90;;;34.50;27.80;;;;;;5055238;28;20162;-51
2021/03/29 09:57:21;;;;;;;1999.90;999.90;;;34.10;28.20;;;;;;5054318;28;20174;-44
2021/03/29 09:59:52;;;;;;;1999.90;999.90;;;34.40;27.90;;;;;;5054590;28;20173;-40
2021/03/29 10:02:26;;;;;;;1999.90;999.90;;;34.50;27.80;;;;;;5055338;28;20172;-41
2021/03/29 10:05:22;;;;;;;1999.90;999.90;;;34.40;27.50;;;;;;5054401;28;20155;-44
2021/03/29 10:07:54;;;;;;;1999.90;999.90;;;34.30;27.80;;;;;;5045671;28;20217;-60
2021/03/29 10:10:30;;;;;;;1999.90;999.90;;;34.40;27.80;;;;;;5054072;28;21461;-56
2021/03/29 10:13:45;;;;;;;1999.90;999.90;;;34.50;27.80;;;;;;5053838;28;20161;-44
2021/03/29 10:16:22;;;;;;;1999.90;999.90;;;35.00;26.80;;;;;;5051733;28;20177;-46
2021/03/29 10:19:02;;;;;;;1999.90;999.90;;;34.60;27.70;;;;;;5054388;28;20181;-42
2021/03/29 10:21:28;;;;;;;1999.90;999.90;;;34.80;26.20;;;;;;5054798;28;20157;-42
2021/03/29 10:24:14;;;;;;;1999.90;999.90;;;34.60;25.90;;;;;;5053761;28;20184;-43
2021/03/29 10:27:04;;;;;;;1999.90;999.90;;;34.60;25.70;;;;;;5034063;28;20184;-40
2021/03/29 10:29:37;;;;;;;1999.90;999.90;;;34.80;25.10;;;;;;5044386;28;20177;-43
2021/03/29 10:32:30;;;;;;;1999.90;999.90;;;34.60;25.50;;;;;;5035239;28;20158;-43
2021/03/29 10:34:56;;;;;;;1999.90;999.90;;;34.90;25.20;;;;;;5050278;28;20282;-50
2021/03/29 10:37:24;;;;;;;1999.90;999.90;;;35.10;25.30;;;;;;5054357;28;20180;-53
2021/03/29 10:39:52;;;;;;;1999.90;999.90;;;35.40;24.90;;;;;;5052793;28;20176;-54
2021/03/29 10:42:21;;;;;;;1999.90;999.90;;;35.30;24.60;;;;;;5054062;28;20173;-45
2021/03/29 10:44:48;;;;;;;1999.90;999.90;;;34.90;24.80;;;;;;5054622;28;20659;-42
2021/03/29 10:47:15;;;;;;;1999.90;999.90;;;34.80;25.00;;;;;;5053653;28;20654;-45
2021/03/29 10:49:42;;;;;;;1999.90;999.90;;;34.70;25.50;;;;;;5054161;28;20218;-51
2021/03/29 10:52:10;;;;;;;1999.90;999.90;;;34.60;26.20;;;;;;5054244;28;20204;-52
2021/03/29 10:54:38;;;;;;;1999.90;999.90;;;35.10;25.60;;;;;;5053880;28;20173;-48
2021/03/29 10:57:05;;;;;;;1999.90;999.90;;;35.20;25.20;;;;;;5053321;28;20169;-55
2021/03/29 10:59:32;;;;;;;1999.90;999.90;;;35.00;25.80;;;;;;5052979;28;20177;-50
2021/03/29 11:02:00;;;;;;;1999.90;999.90;;;34.10;25.80;;;;;;5053222;28;20184;-40
2021/03/29 11:04:27;;;;;;;1999.90;999.90;;;34.30;25.80;;;;;;5053947;28;20647;-50
2021/03/29 11:06:55;;;;;;;1999.90;999.90;;;34.60;25.50;;;;;;5053578;28;20173;-49
2021/03/29 11:09:23;;;;;;;1999.90;999.90;;;34.80;25.50;;;;;;5052785;28;20236;-50
2021/03/29 11:11:52;;;;;;;1999.90;999.90;;;34.70;25.30;;;;;;5053248;28;20169;-46
2021/03/29 11:14:21;;;;;;;1999.90;999.90;;;34.80;25.50;;;;;;5053752;28;20185;-41
2021/03/29 11:16:53;;;;;;;1999.90;999.90;;;34.70;25.00;;;;;;5053171;28;20165;-42
2021/03/29 11:19:21;;;;;;;1999.90;999.90;;;34.10;25.90;;;;;;5053400;28;20177;-51
2021/03/29 11:21:49;;;;;;;1999.90;999.90;;;34.30;25.40;;;;;;5053465;28;20176;-51
2021/03/29 11:24:16;;;;;;;1999.90;999.90;;;34.50;25.10;;;;;;5053409;28;20169;-54
2021/03/29 11:26:43;;;;;;;1999.90;999.90;;;34.60;24.90;;;;;;5053715;28;20379;-43
2021/03/29 11:29:10;;;;;;;1999.90;999.90;;;34.40;25.10;;;;;;5053073;28;20169;-48
2021/03/29 11:31:40;;;;;;;1999.90;999.90;;;34.70;25.30;;;;;;5052848;28;20173;-40
2021/03/29 11:34:07;;;;;;;1999.90;999.90;;;34.60;25.30;;;;;;5053325;28;20355;-49
2021/03/29 11:36:35;;;;;;;1999.90;999.90;;;34.90;25.50;;;;;;5052733;28;20252;-55
2021/03/29 11:39:02;;;;;;;1999.90;999.90;;;34.80;25.40;;;;;;5053217;28;20169;-51
2021/03/29 11:41:31;;;;;;;1999.90;999.90;;;35.30;25.00;;;;;;5053324;28;20169;-46
2021/03/29 11:43:58;;;;;;;1999.90;999.90;;;35.30;24.50;;;;;;5052660;28;20165;-51
2021/03/29 11:46:25;;;;;;;1999.90;999.90;;;35.10;25.30;;;;;;5053211;28;20181;-52
2021/03/29 11:48:51;;;;;;;1999.90;999.90;;;35.50;24.70;;;;;;5053349;28;20201;-48
2021/03/29 11:51:18;;;;;;;1999.90;999.90;;;35.60;24.50;;;;;;5052612;28;20181;-52
2021/03/29 11:53:45;;;;;;;1999.90;999.90;;;35.70;24.30;;;;;;5053147;28;20175;-52
2021/03/29 11:56:12;;;;;;;1999.90;999.90;;;35.50;24.30;;;;;;5052937;28;20165;-48
2021/03/29 11:58:39;;;;;;;1999.90;999.90;;;35.40;24.60;;;;;;5052455;28;20230;-48
2021/03/29 12:04:28;;;;;;;1999.90;999.90;;;35.80;23.60;;;;;;5036126;28;20204;-50
2021/03/29 12:06:59;;;;;;;1999.90;999.90;;;35.50;23.20;;;;;;5051899;28;20192;-47
2021/03/29 12:12:01;;;;;;;1999.90;999.90;;;35.60;23.40;;;;;;5051689;28;20701;-39
2021/03/29 12:14:33;;;;;;;1999.90;999.90;;;35.70;23.20;;;;;;5052799;28;20204;-44
2021/03/29 12:17:02;;;;;;;1999.90;999.90;;;35.50;23.40;;;;;;5052625;28;20165;-44
2021/03/29 12:19:30;;;;;;;1999.90;999.90;;;35.60;22.90;;;;;;5052215;28;20169;-44
2021/03/29 12:22:04;;;;;;;1999.90;999.90;;;35.60;23.10;;;;;;5052404;28;20173;-43
2021/03/29 12:24:34;;;;;;;1999.90;999.90;;;35.40;23.40;;;;;;5051774;28;20169;-39
2021/03/29 12:27:05;;;;;;;1999.90;999.90;;;35.30;23.20;;;;;;5052234;28;20180;-43